createdAt,value
2023-02-11T00:02:22.539Z,21.80
2023-02-11T00:04:48.976Z,14.40
2023-02-11T00:07:15.256Z,11.70
2023-02-11T00:09:41.547Z,15.13
2023-02-11T00:12:07.848Z,20.63
2023-02-11T00:14:34.109Z,16.95
2023-02-11T00:17:00.452Z,21.67
2023-02-11T00:19:26.798Z,20.10
2023-02-11T00:21:53.108Z,24.80
2023-02-11T00:24:19.375Z,15.00
2023-02-11T00:26:45.648Z,14.63
2023-02-11T00:29:11.989Z,17.70
2023-02-11T00:31:38.404Z,21.63
2023-02-11T00:34:04.737Z,18.15
2023-02-11T00:36:31.383Z,19.60
2023-02-11T00:38:58.385Z,24.08
2023-02-11T00:41:25.201Z,23.80
2023-02-11T00:43:52.056Z,20.35
2023-02-11T00:46:18.445Z,21.73
2023-02-11T00:48:44.786Z,18.50
2023-02-11T00:51:11.790Z,16.20
2023-02-11T00:53:38.598Z,21.67
2023-02-11T00:56:05.432Z,19.40
2023-02-11T00:58:31.727Z,25.17
2023-02-11T01:00:58.446Z,14.90
2023-02-11T01:03:25.080Z,17.33
2023-02-11T01:05:51.750Z,20.70
2023-02-11T01:08:18.766Z,21.38
2023-02-11T01:10:45.139Z,15.15
2023-02-11T01:13:11.539Z,17.92
2023-02-11T01:15:37.921Z,18.45
2023-02-11T01:18:05.373Z,19.02
2023-02-11T01:20:31.809Z,19.73
2023-02-11T01:22:58.087Z,19.27
2023-02-11T01:25:24.447Z,20.73
2023-02-11T01:27:50.752Z,22.63
2023-02-11T01:30:17.143Z,23.27
2023-02-11T01:32:43.437Z,23.08
2023-02-11T01:35:10.149Z,25.20
2023-02-11T01:37:36.848Z,18.50
2023-02-11T01:40:07.443Z,25.98
2023-02-11T01:42:33.789Z,21.30
2023-02-11T01:45:01.652Z,23.15
2023-02-11T01:47:27.948Z,13.10
2023-02-11T01:49:57.861Z,20.88
2023-02-11T01:52:32.001Z,17.35
2023-02-11T01:55:08.510Z,21.08
2023-02-11T01:57:38.057Z,19.10
2023-02-11T02:00:14.307Z,20.27
2023-02-11T02:03:02.860Z,23.27
2023-02-11T02:05:36.944Z,22.20
2023-02-11T02:08:22.049Z,23.83
2023-02-11T02:10:51.343Z,18.27
2023-02-11T02:13:17.634Z,18.08
2023-02-11T02:16:06.693Z,15.35
2023-02-11T02:18:52.691Z,17.90
2023-02-11T02:21:43.893Z,21.02
2023-02-11T02:24:20.203Z,22.52
2023-02-11T02:27:07.680Z,23.38
2023-02-11T02:29:50.145Z,16.88
2023-02-11T02:32:44.255Z,22.92
2023-02-11T02:35:23.525Z,25.00
2023-02-11T02:38:13.180Z,19.50
2023-02-11T02:40:54.748Z,26.58
2023-02-11T02:43:22.658Z,15.38
2023-02-11T02:45:49.459Z,15.93
2023-02-11T02:48:33.443Z,20.60
2023-02-11T02:51:21.312Z,17.30
2023-02-11T02:53:58.162Z,24.50
2023-02-11T02:56:29.989Z,19.92
2023-02-11T02:59:04.200Z,21.45
2023-02-11T03:01:49.084Z,23.60
2023-02-11T03:04:27.047Z,28.23
2023-02-11T03:07:10.514Z,23.75
2023-02-11T03:09:44.861Z,16.70
2023-02-11T03:12:13.474Z,24.52
2023-02-11T03:14:41.465Z,17.83
2023-02-11T03:17:09.686Z,21.23
2023-02-11T03:19:39.374Z,22.42
2023-02-11T03:22:11.605Z,23.25
2023-02-11T03:24:41.090Z,19.02
2023-02-11T03:27:28.985Z,19.05
2023-02-11T03:30:10.234Z,20.95
2023-02-11T03:32:41.158Z,23.00
2023-02-11T03:35:09.958Z,23.52
2023-02-11T03:37:45.069Z,13.60
2023-02-11T03:40:15.591Z,23.88
2023-02-11T03:42:50.843Z,24.48
2023-02-11T03:45:21.461Z,21.55
2023-02-11T03:47:53.305Z,14.80
2023-02-11T03:50:21.488Z,27.10
2023-02-11T03:52:49.414Z,22.67
2023-02-11T03:55:18.380Z,23.85
2023-02-11T03:57:45.041Z,20.77
2023-02-11T04:00:12.369Z,21.77
2023-02-11T04:02:39.940Z,22.60
2023-02-11T04:05:08.064Z,23.63
2023-02-11T04:07:34.519Z,16.27
2023-02-11T04:10:01.028Z,21.13
2023-02-11T04:12:27.389Z,23.33
2023-02-11T04:14:53.706Z,21.75
2023-02-11T04:17:20.037Z,15.13
2023-02-11T04:19:46.363Z,23.95
2023-02-11T04:22:12.682Z,22.10
2023-02-11T04:24:39.341Z,24.42
2023-02-11T04:27:05.621Z,24.23
2023-02-11T04:29:31.951Z,19.27
2023-02-11T04:31:58.329Z,22.00
2023-02-11T04:34:24.698Z,20.95
2023-02-11T04:36:51.263Z,23.75
2023-02-11T04:39:17.564Z,23.38
2023-02-11T04:41:43.883Z,16.63
2023-02-11T04:44:10.341Z,24.17
2023-02-11T04:46:36.944Z,22.45
2023-02-11T04:49:03.634Z,23.88
2023-02-11T04:51:30.134Z,27.95
2023-02-11T04:53:56.484Z,22.20
2023-02-11T04:56:22.845Z,18.90
2023-02-11T04:58:49.139Z,23.52
2023-02-11T05:01:16.159Z,18.13
2023-02-11T05:03:42.933Z,23.65
2023-02-11T05:06:10.182Z,19.55
2023-02-11T05:08:36.549Z,26.10
2023-02-11T05:11:02.909Z,18.13
2023-02-11T05:13:29.580Z,28.98
2023-02-11T05:15:56.035Z,22.15
2023-02-11T05:18:22.550Z,26.05
2023-02-11T05:20:48.886Z,22.13
2023-02-11T05:23:15.152Z,33.42
2023-02-11T05:25:41.425Z,25.58
2023-02-11T05:28:07.949Z,23.38
2023-02-11T05:30:34.465Z,28.73
2023-02-11T05:33:00.748Z,28.38
2023-02-11T05:35:27.032Z,28.83
2023-02-11T05:37:53.299Z,31.02
2023-02-11T05:40:19.674Z,22.98
2023-02-11T05:42:45.971Z,26.55
2023-02-11T05:45:12.268Z,23.73
2023-02-11T05:47:38.530Z,26.00
2023-02-11T05:50:05.099Z,32.88
2023-02-11T05:52:31.390Z,32.50
2023-02-11T05:54:57.779Z,22.92
2023-02-11T05:57:24.056Z,19.83
2023-02-11T05:59:50.379Z,30.45
2023-02-11T06:02:16.760Z,24.83
2023-02-11T06:04:43.075Z,22.60
2023-02-11T06:07:09.392Z,30.55
2023-02-11T06:09:36.912Z,33.95
2023-02-11T06:12:04.586Z,28.73
2023-02-11T06:14:33.142Z,27.85
2023-02-11T06:16:59.667Z,28.38
2023-02-11T06:19:26.157Z,17.17
2023-02-11T06:21:52.451Z,30.65
2023-02-11T06:24:33.144Z,37.75
2023-02-11T06:27:05.189Z,27.25
2023-02-11T06:29:31.546Z,25.85
2023-02-11T06:31:58.164Z,39.78
2023-02-11T06:34:24.521Z,19.80
2023-02-11T06:36:50.824Z,29.25
2023-02-11T06:39:17.164Z,31.90
2023-02-11T06:41:43.458Z,25.95
2023-02-11T06:44:09.722Z,25.73
2023-02-11T06:46:36.078Z,30.63
2023-02-11T06:49:02.423Z,28.25
2023-02-11T06:51:28.760Z,41.50
2023-02-11T06:53:55.061Z,36.85
2023-02-11T06:56:23.034Z,31.55
2023-02-11T06:58:53.402Z,24.02
2023-02-11T07:01:19.865Z,28.65
2023-02-11T07:03:46.249Z,26.73
2023-02-11T07:06:18.685Z,31.77
2023-02-11T07:08:45.798Z,39.97
2023-02-11T07:11:14.395Z,37.58
2023-02-11T07:13:40.830Z,30.65
2023-02-11T07:16:09.318Z,38.70
2023-02-11T07:18:35.663Z,27.73
2023-02-11T07:21:10.250Z,23.00
2023-02-11T07:23:37.418Z,32.15
2023-02-11T07:26:08.723Z,18.45
2023-02-11T07:28:36.785Z,31.33
2023-02-11T07:31:11.558Z,28.80
2023-02-11T07:33:38.231Z,35.60
2023-02-11T07:36:06.357Z,22.90
2023-02-11T07:38:33.927Z,28.55
2023-02-11T07:43:27.881Z,30.13
2023-02-11T07:45:54.251Z,37.67
2023-02-11T07:48:20.544Z,30.45
2023-02-11T07:50:46.801Z,37.58
2023-02-11T07:53:13.188Z,33.88
2023-02-11T07:55:39.457Z,32.83
2023-02-11T07:58:05.794Z,34.67
2023-02-11T08:00:32.070Z,28.63
2023-02-11T08:02:58.378Z,34.90
2023-02-11T08:05:24.705Z,26.77
2023-02-11T08:07:54.209Z,33.03
2023-02-11T08:10:21.369Z,24.13
2023-02-11T08:12:48.044Z,36.67
2023-02-11T08:15:14.429Z,38.83
2023-02-11T08:17:40.696Z,30.15
2023-02-11T08:20:07.280Z,40.58
2023-02-11T08:22:34.997Z,36.15
2023-02-11T08:25:01.300Z,34.50
2023-02-11T08:27:27.625Z,33.33
2023-02-11T08:29:54.371Z,27.75
2023-02-11T08:32:21.685Z,23.88
2023-02-11T08:34:52.148Z,37.67
2023-02-11T08:37:18.968Z,29.20
2023-02-11T08:39:45.513Z,34.60
2023-02-11T08:42:11.908Z,37.78
2023-02-11T08:44:38.209Z,33.88
2023-02-11T08:47:04.736Z,27.23
2023-02-11T08:49:31.409Z,25.65
2023-02-11T08:51:57.672Z,33.58
2023-02-11T08:54:23.961Z,33.78
2023-02-11T08:56:51.852Z,35.17
2023-02-11T08:59:18.601Z,36.28
2023-02-11T09:01:45.495Z,21.92
2023-02-11T09:04:12.232Z,35.47
2023-02-11T09:06:38.781Z,27.45
2023-02-11T09:09:05.154Z,29.90
2023-02-11T09:11:35.112Z,34.67
2023-02-11T09:14:02.439Z,34.85
2023-02-11T09:16:31.980Z,34.88
2023-02-11T09:18:59.446Z,33.53
2023-02-11T09:21:26.295Z,43.20
2023-02-11T09:23:52.806Z,30.15
2023-02-11T09:26:22.317Z,37.67
2023-02-11T09:28:49.019Z,33.75
2023-02-11T09:31:18.812Z,33.30
2023-02-11T09:33:47.012Z,29.85
2023-02-11T09:36:20.339Z,34.85
2023-02-11T09:38:47.685Z,31.83
2023-02-11T09:41:58.961Z,21.77
2023-02-11T09:44:31.138Z,34.85
2023-02-11T09:47:23.104Z,32.50
2023-02-11T09:52:24.504Z,34.83
2023-02-11T09:55:02.774Z,31.27
2023-02-11T09:57:37.085Z,31.75
2023-02-11T10:00:28.387Z,31.23
2023-02-11T10:03:18.726Z,30.42
2023-02-11T10:05:58.036Z,28.85
2023-02-11T10:08:33.342Z,30.70
2023-02-11T10:11:31.181Z,35.40
2023-02-11T10:14:24.251Z,34.80
2023-02-11T10:17:14.439Z,26.35
2023-02-11T10:20:18.130Z,35.25
2023-02-11T10:22:55.622Z,28.50
2023-02-11T10:25:37.409Z,36.55
2023-02-11T10:28:13.829Z,16.20
2023-02-11T10:30:56.463Z,27.13
2023-02-11T10:33:43.952Z,24.90
2023-02-11T10:36:12.582Z,25.55
2023-02-11T10:38:39.485Z,33.58
2023-02-11T10:41:06.331Z,44.13
2023-02-11T10:43:33.295Z,35.65
2023-02-11T10:46:02.608Z,26.95
2023-02-11T10:48:49.368Z,38.08
2023-02-11T10:51:23.232Z,22.38
2023-02-11T10:54:11.906Z,33.03
2023-02-11T10:56:51.253Z,31.27
2023-02-11T10:59:29.329Z,23.50
2023-02-11T11:02:06.623Z,21.73
2023-02-11T11:04:39.033Z,28.85
2023-02-11T11:07:14.614Z,33.25
2023-02-11T11:09:56.022Z,28.63
2023-02-11T11:12:36.142Z,24.48
2023-02-11T11:15:13.714Z,30.52
2023-02-11T11:17:40.256Z,35.50
2023-02-11T11:20:23.391Z,26.92
2023-02-11T11:22:52.388Z,30.40
2023-02-11T11:25:27.904Z,36.50
2023-02-11T11:27:57.552Z,32.25
2023-02-11T11:30:31.627Z,23.77
2023-02-11T11:32:58.978Z,25.75
2023-02-11T11:35:30.857Z,23.90
2023-02-11T11:38:02.151Z,25.40
2023-02-11T11:40:34.045Z,29.67
2023-02-11T11:43:14.427Z,28.52
2023-02-11T11:45:56.367Z,25.35
2023-02-11T11:48:28.480Z,30.30
2023-02-11T11:51:15.006Z,27.02
2023-02-11T11:53:51.016Z,26.40
2023-02-11T11:56:22.499Z,25.38
2023-02-11T11:58:50.078Z,26.55
2023-02-11T12:04:23.779Z,23.75
2023-02-11T12:07:07.495Z,18.08
2023-02-11T12:09:58.395Z,24.33
2023-02-11T12:12:45.837Z,19.40
2023-02-11T12:15:32.914Z,25.90
2023-02-11T12:18:20.192Z,22.00
2023-02-11T12:20:52.784Z,23.48
2023-02-11T12:23:54.741Z,20.90
2023-02-11T12:26:40.469Z,25.67
2023-02-11T12:29:25.067Z,20.20
2023-02-11T12:32:17.485Z,22.08
2023-02-11T12:34:52.596Z,21.42
2023-02-11T12:37:27.736Z,20.13
2023-02-11T12:40:22.728Z,21.23
2023-02-11T12:43:06.170Z,16.20
2023-02-11T12:45:50.640Z,23.63
2023-02-11T12:48:28.980Z,24.30
2023-02-11T12:51:32.949Z,13.40
2023-02-11T12:54:18.324Z,19.60
2023-02-11T12:56:55.220Z,23.52
2023-02-11T12:59:34.376Z,24.38
2023-02-11T13:02:10.178Z,23.92
2023-02-11T13:04:46.258Z,18.25
2023-02-11T13:07:23.400Z,21.83
2023-02-11T13:10:03.116Z,20.40
2023-02-11T13:15:03.077Z,22.30
2023-02-11T13:17:39.960Z,22.23
2023-02-11T13:20:26.527Z,24.48
2023-02-11T13:23:20.569Z,22.08
2023-02-11T13:25:53.961Z,22.75
2023-02-11T13:28:40.090Z,17.00
2023-02-11T13:31:07.162Z,21.20
2023-02-11T13:33:38.146Z,22.35
2023-02-11T13:36:04.885Z,18.98
2023-02-11T13:38:32.629Z,22.42
2023-02-11T13:41:34.396Z,19.92
2023-02-11T13:44:08.316Z,25.50
2023-02-11T13:46:56.650Z,19.88
2023-02-11T13:49:27.689Z,20.45
2023-02-11T13:51:55.298Z,19.88
2023-02-11T13:54:34.415Z,15.95
2023-02-11T13:57:19.499Z,20.80
2023-02-11T13:59:51.516Z,17.67
2023-02-11T14:02:23.137Z,19.25
2023-02-11T14:05:20.453Z,19.77
2023-02-11T14:08:11.633Z,15.93
2023-02-11T14:10:40.858Z,12.45
2023-02-11T14:13:32.958Z,13.10
2023-02-11T14:16:11.520Z,16.13
2023-02-11T14:18:57.443Z,18.13
2023-02-11T14:21:26.489Z,18.02
2023-02-11T14:24:13.737Z,17.10
2023-02-11T14:27:07.134Z,20.40
2023-02-11T14:29:44.955Z,18.90
2023-02-11T14:32:43.589Z,14.68
2023-02-11T14:35:26.339Z,19.15
2023-02-11T14:38:00.802Z,15.40
2023-02-11T14:40:48.012Z,17.45
2023-02-11T14:43:23.095Z,18.52
2023-02-11T14:45:55.477Z,12.23
2023-02-11T14:48:29.292Z,15.18
2023-02-11T14:51:15.943Z,20.42
2023-02-11T14:53:49.456Z,21.20
2023-02-11T14:56:19.510Z,16.17
2023-02-11T14:58:47.406Z,14.88
2023-02-11T15:01:27.621Z,16.35
2023-02-11T15:03:54.007Z,15.43
2023-02-11T15:06:26.590Z,18.08
2023-02-11T15:09:17.706Z,14.15
2023-02-11T15:11:47.399Z,16.70
2023-02-11T15:14:31.873Z,15.40
2023-02-11T15:17:01.147Z,12.57
2023-02-11T15:19:41.213Z,15.63
2023-02-11T15:22:17.973Z,15.27
2023-02-11T15:24:44.335Z,14.48
2023-02-11T15:27:13.390Z,14.15
2023-02-11T15:29:45.718Z,18.20
2023-02-11T15:32:23.600Z,13.98
2023-02-11T15:34:52.594Z,13.95
2023-02-11T15:37:24.046Z,12.18
2023-02-11T15:39:51.281Z,13.30
2023-02-11T15:42:22.753Z,14.40
2023-02-11T15:45:07.586Z,14.15
2023-02-11T15:47:34.168Z,15.45
2023-02-11T15:50:00.500Z,13.75
2023-02-11T15:52:28.222Z,12.93
2023-02-11T15:54:57.926Z,14.32
2023-02-11T15:57:24.211Z,13.88
2023-02-11T15:59:53.091Z,13.80
2023-02-11T16:02:34.059Z,11.80
2023-02-11T16:05:04.695Z,13.80
2023-02-11T16:07:50.507Z,11.38
2023-02-11T16:12:55.678Z,10.35
2023-02-11T16:15:34.039Z,9.75
2023-02-11T16:18:13.375Z,8.70
2023-02-11T16:20:40.065Z,9.77
2023-02-11T16:23:07.485Z,10.60
2023-02-11T16:25:37.359Z,10.48
2023-02-11T16:28:04.176Z,9.68
2023-02-11T16:30:34.973Z,9.20
2023-02-11T16:33:01.268Z,10.85
2023-02-11T16:35:27.574Z,8.25
2023-02-11T16:37:53.854Z,10.80
2023-02-11T16:40:20.252Z,9.10
2023-02-11T16:42:46.552Z,11.57
2023-02-11T16:45:13.616Z,10.52
2023-02-11T16:47:41.848Z,9.65
2023-02-11T16:50:10.607Z,10.35
2023-02-11T16:52:37.244Z,9.35
2023-02-11T16:55:05.086Z,9.20
2023-02-11T16:57:31.638Z,10.18
2023-02-11T16:59:58.353Z,10.65
2023-02-11T17:02:28.317Z,9.57
2023-02-11T17:04:57.779Z,9.70
2023-02-11T17:07:24.134Z,10.82
2023-02-11T17:09:50.849Z,10.18
2023-02-11T17:12:17.209Z,8.02
2023-02-11T17:14:43.600Z,7.95
2023-02-11T17:17:11.205Z,9.05
2023-02-11T17:22:04.495Z,7.47
2023-02-11T17:24:30.878Z,8.65
2023-02-11T17:26:57.271Z,8.75
2023-02-11T17:29:25.080Z,12.15
2023-02-11T17:31:52.657Z,9.85
2023-02-11T17:34:20.105Z,11.98
2023-02-11T17:36:46.421Z,11.63
2023-02-11T17:39:12.976Z,10.55
2023-02-11T17:41:40.306Z,10.82
2023-02-11T17:44:08.010Z,11.50
2023-02-11T17:46:35.365Z,10.38
2023-02-11T17:49:02.428Z,9.65
2023-02-11T17:51:31.767Z,9.88
2023-02-11T17:54:02.370Z,10.02
2023-02-11T17:56:31.884Z,11.10
2023-02-11T17:58:58.170Z,9.25
2023-02-11T18:01:28.086Z,8.60
2023-02-11T18:03:54.463Z,8.80
2023-02-11T18:06:20.764Z,8.82
2023-02-11T18:08:47.621Z,8.88
2023-02-11T18:11:15.441Z,9.13
2023-02-11T18:13:42.973Z,8.93
2023-02-11T18:18:35.673Z,9.00
2023-02-11T18:21:03.544Z,8.93
2023-02-11T18:23:30.397Z,10.13
2023-02-11T18:25:56.673Z,7.32
2023-02-11T18:28:22.981Z,7.25
2023-02-11T18:30:56.524Z,10.48
2023-02-11T18:33:22.915Z,7.93
2023-02-11T18:35:49.571Z,8.68
2023-02-11T18:38:15.923Z,8.45
2023-02-11T18:40:42.353Z,9.52
2023-02-11T18:43:08.625Z,8.32
2023-02-11T18:45:34.985Z,9.70
2023-02-11T18:48:01.417Z,10.15
2023-02-11T18:50:27.891Z,10.48
2023-02-11T18:52:54.181Z,9.98
2023-02-11T18:55:23.485Z,11.93
2023-02-11T18:57:49.908Z,10.93
2023-02-11T19:00:16.647Z,12.77
2023-02-11T19:02:42.932Z,9.10
2023-02-11T19:05:09.287Z,9.65
2023-02-11T19:07:35.713Z,9.52
2023-02-11T19:10:02.071Z,9.18
2023-02-11T19:12:28.365Z,10.55
2023-02-11T19:14:54.657Z,8.57
2023-02-11T19:17:20.963Z,7.82
2023-02-11T19:19:47.307Z,10.63
2023-02-11T19:22:13.584Z,9.52
2023-02-11T19:24:39.876Z,8.05
2023-02-11T19:27:06.158Z,8.23
2023-02-11T19:29:32.647Z,8.25
2023-02-11T19:31:59.237Z,7.90
2023-02-11T19:34:25.528Z,9.00
2023-02-11T19:36:51.960Z,9.13
2023-02-11T19:39:18.237Z,10.82
2023-02-11T19:41:44.551Z,9.63
2023-02-11T19:44:13.532Z,9.82
2023-02-11T19:46:40.305Z,10.55
2023-02-11T19:49:07.279Z,10.20
2023-02-11T19:51:33.872Z,8.63
2023-02-11T19:54:00.506Z,8.85
2023-02-11T19:56:27.332Z,8.43
2023-02-11T19:58:54.064Z,8.45
2023-02-11T20:01:22.020Z,9.15
2023-02-11T20:03:50.211Z,9.82
2023-02-11T20:06:21.981Z,9.80
2023-02-11T20:08:48.239Z,9.60
2023-02-11T20:11:16.577Z,8.52
2023-02-11T20:13:43.864Z,9.20
2023-02-11T20:16:14.727Z,9.80
2023-02-11T20:18:41.263Z,9.27
2023-02-11T20:21:09.345Z,8.55
2023-02-11T20:23:36.837Z,10.13
2023-02-11T20:28:37.146Z,8.43
2023-02-11T20:31:04.450Z,8.73
2023-02-11T20:33:31.993Z,8.48
2023-02-11T20:36:07.330Z,9.02
2023-02-11T20:38:34.152Z,9.68
2023-02-11T20:41:12.562Z,10.15
2023-02-11T20:43:39.019Z,11.30
2023-02-11T20:46:06.564Z,8.07
2023-02-11T20:51:17.756Z,9.75
2023-02-11T20:53:48.306Z,8.95
2023-02-11T20:56:16.003Z,10.40
2023-02-11T20:58:42.407Z,9.68
2023-02-11T21:01:16.263Z,7.93
2023-02-11T21:03:43.785Z,12.77
2023-02-11T21:08:37.695Z,7.30
2023-02-11T21:11:04.151Z,8.95
2023-02-11T21:13:30.440Z,7.55
2023-02-11T21:15:57.302Z,7.03
2023-02-11T21:18:23.862Z,7.82
2023-02-11T21:20:50.488Z,6.90
2023-02-11T21:23:17.032Z,6.88
2023-02-11T21:25:43.324Z,6.43
2023-02-11T21:28:09.641Z,6.75
2023-02-11T21:30:38.409Z,7.25
2023-02-11T21:33:05.785Z,6.78
2023-02-11T21:35:33.678Z,6.07
2023-02-11T21:37:59.967Z,6.20
2023-02-11T21:40:26.495Z,7.13
2023-02-11T21:42:53.494Z,6.55
2023-02-11T21:45:19.787Z,6.35
2023-02-11T21:47:46.155Z,6.57
2023-02-11T21:50:12.564Z,6.47
2023-02-11T21:52:38.859Z,7.32
2023-02-11T21:55:05.565Z,6.20
2023-02-11T21:57:31.892Z,7.00
2023-02-11T21:59:58.172Z,5.38
2023-02-11T22:02:24.485Z,6.85
2023-02-11T22:04:50.960Z,6.63
2023-02-11T22:07:17.383Z,6.30
2023-02-11T22:09:43.673Z,6.53
2023-02-11T22:12:09.948Z,5.75
2023-02-11T22:14:36.763Z,5.53
2023-02-11T22:17:03.933Z,5.30
2023-02-11T22:19:30.329Z,5.57
2023-02-11T22:21:56.622Z,4.93
2023-02-11T22:24:22.916Z,5.97
2023-02-11T22:26:49.188Z,5.88
2023-02-11T22:29:15.483Z,6.07
